sensor_id;sensor_type;location;lat;lon;timestamp;pressure;altitude;pressure_sealevel;temperature;humidity
10638;BME280;47007;49.252;8.904;2022-11-14T00:02:02;99809.72;;;5.21;100.00
10638;BME280;47007;49.252;8.904;2022-11-14T00:04:48;99793.72;;;5.14;100.00
10638;BME280;47007;49.252;8.904;2022-11-14T00:07:34;99819.03;;;5.33;100.00
10638;BME280;47007;49.252;8.904;2022-11-14T00:10:19;99808.72;;;5.22;100.00
10638;BME280;47007;49.252;8.904;2022-11-14T00:13:05;99804.16;;;5.24;100.00
10638;BME280;47007;49.252;8.904;2022-11-14T00:15:51;99825.03;;;5.25;100.00
10638;BME280;47007;49.252;8.904;2022-11-14T00:18:38;99848.41;;;5.28;100.00
10638;BME280;47007;49.252;8.904;2022-11-14T00:21:23;99838.25;;;5.33;100.00
10638;BME280;47007;49.252;8.904;2022-11-14T00:24:09;99829.63;;;5.41;100.00
10638;BME280;47007;49.252;8.904;2022-11-14T00:26:54;99823.63;;;5.49;100.00
10638;BME280;47007;49.252;8.904;2022-11-14T00:29:39;99814.75;;;5.50;100.00
10638;BME280;47007;49.252;8.904;2022-11-14T00:32:25;99818.22;;;5.68;100.00
10638;BME280;47007;49.252;8.904;2022-11-14T00:35:10;99840.28;;;5.75;100.00
10638;BME280;47007;49.252;8.904;2022-11-14T00:37:55;99754.28;;;5.32;100.00
10638;BME280;47007;49.252;8.904;2022-11-14T00:40:40;99725.34;;;5.06;100.00
10638;BME280;47007;49.252;8.904;2022-11-14T00:43:25;99750.56;;;5.17;100.00
10638;BME280;47007;49.252;8.904;2022-11-14T00:46:11;99815.38;;;5.44;100.00
10638;BME280;47007;49.252;8.904;2022-11-14T00:48:56;99794.88;;;5.29;100.00
10638;BME280;47007;49.252;8.904;2022-11-14T00:51:42;99821.50;;;5.34;100.00
10638;BME280;47007;49.252;8.904;2022-11-14T00:54:27;99819.50;;;5.28;100.00
10638;BME280;47007;49.252;8.904;2022-11-14T00:57:12;99819.56;;;5.36;100.00
10638;BME280;47007;49.252;8.904;2022-11-14T00:59:57;99807.56;;;5.52;100.00
10638;BME280;47007;49.252;8.904;2022-11-14T01:02:43;99808.34;;;5.70;100.00
10638;BME280;47007;49.252;8.904;2022-11-14T01:05:28;99793.97;;;5.82;100.00
10638;BME280;47007;49.252;8.904;2022-11-14T01:08:15;99796.16;;;5.87;100.00
10638;BME280;47007;49.252;8.904;2022-11-14T01:11:11;99795.53;;;5.67;100.00
10638;BME280;47007;49.252;8.904;2022-11-14T01:13:57;99759.41;;;5.33;100.00
10638;BME280;47007;49.252;8.904;2022-11-14T01:16:42;99781.19;;;5.44;100.00
10638;BME280;47007;49.252;8.904;2022-11-14T01:19:27;99783.22;;;5.50;100.00
10638;BME280;47007;49.252;8.904;2022-11-14T01:22:12;99757.47;;;5.35;100.00
10638;BME280;47007;49.252;8.904;2022-11-14T01:24:57;99761.59;;;5.56;100.00
10638;BME280;47007;49.252;8.904;2022-11-14T01:27:42;99773.13;;;5.63;100.00
10638;BME280;47007;49.252;8.904;2022-11-14T01:30:32;99739.78;;;5.63;100.00
10638;BME280;47007;49.252;8.904;2022-11-14T01:33:18;99745.47;;;5.76;100.00
10638;BME280;47007;49.252;8.904;2022-11-14T01:36:04;99745.91;;;5.72;100.00
10638;BME280;47007;49.252;8.904;2022-11-14T01:38:53;99750.88;;;5.75;100.00
10638;BME280;47007;49.252;8.904;2022-11-14T01:41:38;99738.91;;;5.55;100.00
10638;BME280;47007;49.252;8.904;2022-11-14T01:44:56;99754.25;;;5.41;100.00
10638;BME280;47007;49.252;8.904;2022-11-14T01:47:42;99754.09;;;5.25;100.00
10638;BME280;47007;49.252;8.904;2022-11-14T01:50:27;99763.78;;;5.25;100.00
10638;BME280;47007;49.252;8.904;2022-11-14T01:53:12;99753.06;;;5.18;100.00
10638;BME280;47007;49.252;8.904;2022-11-14T01:56:02;99743.50;;;4.99;100.00
10638;BME280;47007;49.252;8.904;2022-11-14T01:58:51;99745.84;;;5.02;100.00
10638;BME280;47007;49.252;8.904;2022-11-14T02:01:45;99738.94;;;5.01;100.00
10638;BME280;47007;49.252;8.904;2022-11-14T02:04:38;99758.34;;;5.09;100.00
10638;BME280;47007;49.252;8.904;2022-11-14T02:07:26;99756.69;;;5.07;100.00
10638;BME280;47007;49.252;8.904;2022-11-14T02:10:18;99740.66;;;5.11;100.00
10638;BME280;47007;49.252;8.904;2022-11-14T02:13:04;99740.66;;;5.11;100.00
10638;BME280;47007;49.252;8.904;2022-11-14T02:15:50;99710.31;;;4.98;100.00
10638;BME280;47007;49.252;8.904;2022-11-14T02:18:36;99705.00;;;5.08;100.00
10638;BME280;47007;49.252;8.904;2022-11-14T02:21:21;99676.31;;;4.97;100.00
10638;BME280;47007;49.252;8.904;2022-11-14T02:24:10;99714.69;;;5.25;100.00
10638;BME280;47007;49.252;8.904;2022-11-14T02:26:57;99718.81;;;5.28;100.00
10638;BME280;47007;49.252;8.904;2022-11-14T02:29:42;99698.16;;;5.15;100.00
10638;BME280;47007;49.252;8.904;2022-11-14T02:32:28;99715.44;;;5.18;100.00
10638;BME280;47007;49.252;8.904;2022-11-14T02:35:29;99696.13;;;5.09;100.00
10638;BME280;47007;49.252;8.904;2022-11-14T02:38:14;99712.50;;;5.21;100.00
10638;BME280;47007;49.252;8.904;2022-11-14T02:41:00;99712.03;;;5.25;100.00
10638;BME280;47007;49.252;8.904;2022-11-14T02:43:45;99702.38;;;5.26;100.00
10638;BME280;47007;49.252;8.904;2022-11-14T02:46:30;99697.53;;;5.39;100.00
10638;BME280;47007;49.252;8.904;2022-11-14T02:49:16;99696.09;;;5.45;100.00
10638;BME280;47007;49.252;8.904;2022-11-14T02:52:01;99694.34;;;5.53;100.00
10638;BME280;47007;49.252;8.904;2022-11-14T02:54:47;99697.44;;;5.74;100.00
10638;BME280;47007;49.252;8.904;2022-11-14T02:57:38;99708.50;;;5.78;100.00
10638;BME280;47007;49.252;8.904;2022-11-14T03:00:23;99686.81;;;5.58;100.00
10638;BME280;47007;49.252;8.904;2022-11-14T03:03:09;99709.31;;;5.78;100.00
10638;BME280;47007;49.252;8.904;2022-11-14T03:06:01;99699.28;;;5.82;100.00
10638;BME280;47007;49.252;8.904;2022-11-14T03:08:46;99703.34;;;5.68;100.00
10638;BME280;47007;49.252;8.904;2022-11-14T03:11:32;99707.03;;;5.58;100.00
10638;BME280;47007;49.252;8.904;2022-11-14T03:14:17;99711.41;;;5.75;100.00
10638;BME280;47007;49.252;8.904;2022-11-14T03:17:03;99702.34;;;5.69;100.00
10638;BME280;47007;49.252;8.904;2022-11-14T03:19:48;99698.72;;;5.70;100.00
10638;BME280;47007;49.252;8.904;2022-11-14T03:22:33;99684.75;;;5.70;100.00
10638;BME280;47007;49.252;8.904;2022-11-14T03:25:18;99695.22;;;5.88;100.00
10638;BME280;47007;49.252;8.904;2022-11-14T03:28:04;99694.84;;;6.00;100.00
10638;BME280;47007;49.252;8.904;2022-11-14T03:30:49;99690.94;;;6.12;100.00
10638;BME280;47007;49.252;8.904;2022-11-14T03:33:35;99694.47;;;6.29;100.00
10638;BME280;47007;49.252;8.904;2022-11-14T03:36:20;99674.88;;;6.24;100.00
10638;BME280;47007;49.252;8.904;2022-11-14T03:39:06;99673.72;;;6.18;100.00
10638;BME280;47007;49.252;8.904;2022-11-14T03:41:51;99645.03;;;6.07;100.00
10638;BME280;47007;49.252;8.904;2022-11-14T03:44:37;99675.53;;;6.26;100.00
10638;BME280;47007;49.252;8.904;2022-11-14T03:47:22;99667.63;;;6.18;100.00
10638;BME280;47007;49.252;8.904;2022-11-14T03:50:08;99646.19;;;6.04;100.00
10638;BME280;47007;49.252;8.904;2022-11-14T03:52:53;99664.75;;;6.03;100.00
10638;BME280;47007;49.252;8.904;2022-11-14T03:55:38;99669.19;;;6.02;100.00
10638;BME280;47007;49.252;8.904;2022-11-14T03:58:24;99657.72;;;6.11;100.00
10638;BME280;47007;49.252;8.904;2022-11-14T04:01:09;99657.22;;;5.82;100.00
10638;BME280;47007;49.252;8.904;2022-11-14T04:03:55;99665.44;;;5.79;100.00
10638;BME280;47007;49.252;8.904;2022-11-14T04:06:40;99665.88;;;5.74;100.00
10638;BME280;47007;49.252;8.904;2022-11-14T04:09:25;99658.78;;;5.67;100.00
10638;BME280;47007;49.252;8.904;2022-11-14T04:12:11;99656.09;;;5.59;100.00
10638;BME280;47007;49.252;8.904;2022-11-14T04:15:00;99645.69;;;5.49;100.00
10638;BME280;47007;49.252;8.904;2022-11-14T04:17:45;99653.94;;;5.54;100.00
10638;BME280;47007;49.252;8.904;2022-11-14T04:20:31;99650.41;;;5.46;100.00
10638;BME280;47007;49.252;8.904;2022-11-14T04:23:17;99653.19;;;5.70;100.00
10638;BME280;47007;49.252;8.904;2022-11-14T04:26:02;99625.00;;;5.80;100.00
10638;BME280;47007;49.252;8.904;2022-11-14T04:28:47;99639.75;;;5.99;100.00
10638;BME280;47007;49.252;8.904;2022-11-14T04:31:32;99638.88;;;5.90;100.00
10638;BME280;47007;49.252;8.904;2022-11-14T04:34:18;99641.53;;;5.98;100.00
10638;BME280;47007;49.252;8.904;2022-11-14T04:37:03;99652.44;;;6.11;100.00
10638;BME280;47007;49.252;8.904;2022-11-14T04:39:48;99649.78;;;6.03;100.00
10638;BME280;47007;49.252;8.904;2022-11-14T04:42:34;99629.63;;;5.86;100.00
10638;BME280;47007;49.252;8.904;2022-11-14T04:45:19;99656.22;;;6.09;100.00
10638;BME280;47007;49.252;8.904;2022-11-14T04:48:05;99651.47;;;6.12;100.00
10638;BME280;47007;49.252;8.904;2022-11-14T04:50:50;99652.59;;;6.02;100.00
10638;BME280;47007;49.252;8.904;2022-11-14T04:53:35;99644.41;;;5.79;100.00
10638;BME280;47007;49.252;8.904;2022-11-14T04:56:21;99649.81;;;5.77;100.00
10638;BME280;47007;49.252;8.904;2022-11-14T04:59:07;99615.50;;;5.53;100.00
10638;BME280;47007;49.252;8.904;2022-11-14T05:01:52;99639.97;;;5.80;100.00
10638;BME280;47007;49.252;8.904;2022-11-14T05:04:37;99638.72;;;5.92;100.00
10638;BME280;47007;49.252;8.904;2022-11-14T05:07:23;99617.59;;;5.50;100.00
10638;BME280;47007;49.252;8.904;2022-11-14T05:10:08;99634.88;;;5.52;100.00
10638;BME280;47007;49.252;8.904;2022-11-14T05:12:54;99635.03;;;5.51;100.00
10638;BME280;47007;49.252;8.904;2022-11-14T05:15:39;99636.63;;;5.44;100.00
10638;BME280;47007;49.252;8.904;2022-11-14T05:18:25;99633.41;;;5.32;100.00
10638;BME280;47007;49.252;8.904;2022-11-14T05:21:14;99625.47;;;5.24;100.00
10638;BME280;47007;49.252;8.904;2022-11-14T05:24:00;99596.84;;;4.95;100.00
10638;BME280;47007;49.252;8.904;2022-11-14T05:26:45;99611.00;;;4.94;100.00
10638;BME280;47007;49.252;8.904;2022-11-14T05:29:30;99619.38;;;4.97;100.00
10638;BME280;47007;49.252;8.904;2022-11-14T05:32:15;99602.19;;;5.03;100.00
10638;BME280;47007;49.252;8.904;2022-11-14T05:35:01;99600.81;;;5.17;100.00
10638;BME280;47007;49.252;8.904;2022-11-14T05:37:46;99574.41;;;5.18;100.00
10638;BME280;47007;49.252;8.904;2022-11-14T05:40:31;99611.53;;;5.49;100.00
10638;BME280;47007;49.252;8.904;2022-11-14T05:43:17;99610.13;;;5.37;100.00
10638;BME280;47007;49.252;8.904;2022-11-14T05:46:05;99585.94;;;5.07;100.00
10638;BME280;47007;49.252;8.904;2022-11-14T05:48:51;99605.78;;;5.02;100.00
10638;BME280;47007;49.252;8.904;2022-11-14T05:51:36;99610.63;;;4.89;100.00
10638;BME280;47007;49.252;8.904;2022-11-14T05:54:21;99620.53;;;4.77;100.00
10638;BME280;47007;49.252;8.904;2022-11-14T05:57:07;99604.78;;;4.59;100.00
10638;BME280;47007;49.252;8.904;2022-11-14T05:59:52;99597.88;;;4.58;100.00
10638;BME280;47007;49.252;8.904;2022-11-14T06:02:37;99613.78;;;4.75;100.00
10638;BME280;47007;49.252;8.904;2022-11-14T06:05:23;99618.72;;;4.60;100.00
10638;BME280;47007;49.252;8.904;2022-11-14T06:08:08;99569.25;;;4.29;100.00
10638;BME280;47007;49.252;8.904;2022-11-14T06:10:53;99565.50;;;4.32;100.00
10638;BME280;47007;49.252;8.904;2022-11-14T06:13:38;99600.03;;;4.45;100.00
10638;BME280;47007;49.252;8.904;2022-11-14T06:16:24;99606.88;;;4.38;100.00
10638;BME280;47007;49.252;8.904;2022-11-14T06:19:09;99596.53;;;4.19;100.00
10638;BME280;47007;49.252;8.904;2022-11-14T06:21:54;99587.16;;;4.16;100.00
10638;BME280;47007;49.252;8.904;2022-11-14T06:24:40;99610.69;;;4.26;100.00
10638;BME280;47007;49.252;8.904;2022-11-14T06:27:25;99603.50;;;4.28;100.00
10638;BME280;47007;49.252;8.904;2022-11-14T06:30:11;99595.16;;;4.15;100.00
10638;BME280;47007;49.252;8.904;2022-11-14T06:32:57;99601.50;;;4.12;100.00
10638;BME280;47007;49.252;8.904;2022-11-14T06:35:43;99592.06;;;4.02;100.00
10638;BME280;47007;49.252;8.904;2022-11-14T06:38:32;99621.25;;;4.16;100.00
10638;BME280;47007;49.252;8.904;2022-11-14T06:41:20;99621.97;;;4.09;100.00
10638;BME280;47007;49.252;8.904;2022-11-14T06:44:07;99605.59;;;3.97;100.00
10638;BME280;47007;49.252;8.904;2022-11-14T06:46:52;99627.25;;;3.99;100.00
10638;BME280;47007;49.252;8.904;2022-11-14T06:49:38;99617.88;;;3.96;100.00
10638;BME280;47007;49.252;8.904;2022-11-14T06:52:24;99625.56;;;4.08;100.00
10638;BME280;47007;49.252;8.904;2022-11-14T06:55:11;99616.78;;;3.99;100.00
10638;BME280;47007;49.252;8.904;2022-11-14T06:57:56;99618.28;;;4.02;100.00
10638;BME280;47007;49.252;8.904;2022-11-14T07:00:42;99625.66;;;4.16;100.00
10638;BME280;47007;49.252;8.904;2022-11-14T07:03:27;99614.56;;;4.22;100.00
10638;BME280;47007;49.252;8.904;2022-11-14T07:06:14;99614.66;;;4.30;100.00
10638;BME280;47007;49.252;8.904;2022-11-14T07:09:00;99616.69;;;4.36;100.00
10638;BME280;47007;49.252;8.904;2022-11-14T07:11:45;99583.75;;;4.24;100.00
10638;BME280;47007;49.252;8.904;2022-11-14T07:14:31;99613.69;;;4.49;100.00
10638;BME280;47007;49.252;8.904;2022-11-14T07:17:16;99617.53;;;4.54;100.00
10638;BME280;47007;49.252;8.904;2022-11-14T07:20:02;99613.13;;;4.55;100.00
10638;BME280;47007;49.252;8.904;2022-11-14T07:22:47;99617.53;;;4.54;100.00
10638;BME280;47007;49.252;8.904;2022-11-14T07:25:33;99630.16;;;4.68;100.00
10638;BME280;47007;49.252;8.904;2022-11-14T07:28:18;99632.84;;;4.77;100.00
10638;BME280;47007;49.252;8.904;2022-11-14T07:31:06;99630.66;;;4.90;100.00
10638;BME280;47007;49.252;8.904;2022-11-14T07:33:51;99595.97;;;4.86;100.00
10638;BME280;47007;49.252;8.904;2022-11-14T07:36:37;99615.69;;;5.08;100.00
10638;BME280;47007;49.252;8.904;2022-11-14T07:39:22;99620.47;;;5.13;100.00
10638;BME280;47007;49.252;8.904;2022-11-14T07:42:07;99618.38;;;5.16;100.00
10638;BME280;47007;49.252;8.904;2022-11-14T07:44:52;99602.78;;;5.15;100.00
10638;BME280;47007;49.252;8.904;2022-11-14T07:47:38;99624.28;;;5.44;100.00
10638;BME280;47007;49.252;8.904;2022-11-14T07:50:24;99605.28;;;5.50;100.00
10638;BME280;47007;49.252;8.904;2022-11-14T07:53:10;99601.88;;;5.58;100.00
10638;BME280;47007;49.252;8.904;2022-11-14T07:56:00;99620.09;;;5.85;100.00
10638;BME280;47007;49.252;8.904;2022-11-14T07:58:45;99625.44;;;6.01;100.00
10638;BME280;47007;49.252;8.904;2022-11-14T08:01:31;99624.16;;;6.05;100.00
10638;BME280;47007;49.252;8.904;2022-11-14T08:04:17;99623.88;;;6.25;100.00
10638;BME280;47007;49.252;8.904;2022-11-14T08:07:02;99619.69;;;6.80;100.00
10638;BME280;47007;49.252;8.904;2022-11-14T08:09:47;99585.44;;;6.97;100.00
10638;BME280;47007;49.252;8.904;2022-11-14T08:12:33;99604.50;;;7.39;100.00
10638;BME280;47007;49.252;8.904;2022-11-14T08:15:18;99590.88;;;7.75;100.00
10638;BME280;47007;49.252;8.904;2022-11-14T08:18:04;99575.63;;;8.55;100.00
10638;BME280;47007;49.252;8.904;2022-11-14T08:20:49;99575.19;;;9.12;100.00
10638;BME280;47007;49.252;8.904;2022-11-14T08:23:35;99562.06;;;9.48;100.00
10638;BME280;47007;49.252;8.904;2022-11-14T08:26:20;99543.44;;;9.41;100.00
10638;BME280;47007;49.252;8.904;2022-11-14T08:29:05;99546.19;;;9.62;100.00
10638;BME280;47007;49.252;8.904;2022-11-14T08:31:51;99524.84;;;9.49;100.00
10638;BME280;47007;49.252;8.904;2022-11-14T08:34:43;99538.78;;;8.99;100.00
10638;BME280;47007;49.252;8.904;2022-11-14T08:37:29;99554.06;;;8.89;100.00
10638;BME280;47007;49.252;8.904;2022-11-14T08:40:14;99550.47;;;8.82;100.00
10638;BME280;47007;49.252;8.904;2022-11-14T08:43:00;99550.72;;;8.72;100.00
10638;BME280;47007;49.252;8.904;2022-11-14T08:45:46;99545.16;;;8.44;100.00
10638;BME280;47007;49.252;8.904;2022-11-14T08:48:31;99557.97;;;8.55;100.00
10638;BME280;47007;49.252;8.904;2022-11-14T08:51:18;99579.97;;;8.48;100.00
10638;BME280;47007;49.252;8.904;2022-11-14T08:54:03;99544.66;;;8.18;100.00
10638;BME280;47007;49.252;8.904;2022-11-14T08:56:48;99582.31;;;8.12;100.00
10638;BME280;47007;49.252;8.904;2022-11-14T08:59:34;99557.25;;;7.69;100.00
10638;BME280;47007;49.252;8.904;2022-11-14T09:02:19;99594.84;;;8.10;100.00
10638;BME280;47007;49.252;8.904;2022-11-14T09:05:05;99591.91;;;8.05;100.00
10638;BME280;47007;49.252;8.904;2022-11-14T09:07:50;99562.66;;;7.83;100.00
10638;BME280;47007;49.252;8.904;2022-11-14T09:10:36;99579.91;;;8.02;100.00
10638;BME280;47007;49.252;8.904;2022-11-14T09:13:21;99584.34;;;8.02;100.00
10638;BME280;47007;49.252;8.904;2022-11-14T09:16:07;99572.66;;;7.96;100.00
10638;BME280;47007;49.252;8.904;2022-11-14T09:18:52;99588.75;;;8.09;100.00
10638;BME280;47007;49.252;8.904;2022-11-14T09:21:37;99572.38;;;7.83;100.00
10638;BME280;47007;49.252;8.904;2022-11-14T09:24:23;99570.78;;;7.74;100.00
10638;BME280;47007;49.252;8.904;2022-11-14T09:27:08;99580.63;;;7.80;100.00
10638;BME280;47007;49.252;8.904;2022-11-14T09:29:53;99584.91;;;7.81;100.00
10638;BME280;47007;49.252;8.904;2022-11-14T09:32:38;99586.84;;;7.95;100.00
10638;BME280;47007;49.252;8.904;2022-11-14T09:35:24;99580.72;;;8.03;100.00
10638;BME280;47007;49.252;8.904;2022-11-14T09:38:10;99586.19;;;8.24;100.00
10638;BME280;47007;49.252;8.904;2022-11-14T09:41:23;99577.56;;;8.38;100.00
10638;BME280;47007;49.252;8.904;2022-11-14T09:47:10;99551.09;;;8.46;100.00
10638;BME280;47007;49.252;8.904;2022-11-14T09:50:12;99562.47;;;8.70;100.00
10638;BME280;47007;49.252;8.904;2022-11-14T09:53:02;99556.16;;;8.93;100.00
10638;BME280;47007;49.252;8.904;2022-11-14T09:55:49;99562.22;;;9.17;100.00
10638;BME280;47007;49.252;8.904;2022-11-14T09:58:35;99529.19;;;8.98;100.00
10638;BME280;47007;49.252;8.904;2022-11-14T10:01:30;99558.13;;;9.29;100.00
10638;BME280;47007;49.252;8.904;2022-11-14T10:04:38;99561.41;;;9.31;100.00
10638;BME280;47007;49.252;8.904;2022-11-14T10:19:20;99569.63;;;9.65;100.00
10638;BME280;47007;49.252;8.904;2022-11-14T10:22:19;99568.25;;;9.69;100.00
10638;BME280;47007;49.252;8.904;2022-11-14T10:25:33;99559.03;;;9.80;100.00
10638;BME280;47007;49.252;8.904;2022-11-14T10:29:02;99561.59;;;9.88;100.00
10638;BME280;47007;49.252;8.904;2022-11-14T10:32:15;99554.06;;;10.06;100.00
10638;BME280;47007;49.252;8.904;2022-11-14T10:35:28;99517.63;;;10.08;100.00
10638;BME280;47007;49.252;8.904;2022-11-14T10:38:31;99546.88;;;10.36;100.00
10638;BME280;47007;49.252;8.904;2022-11-14T10:41:18;99518.31;;;10.17;100.00
10638;BME280;47007;49.252;8.904;2022-11-14T10:44:37;99542.47;;;10.43;100.00
10638;BME280;47007;49.252;8.904;2022-11-14T10:47:35;99465.91;;;9.91;100.00
10638;BME280;47007;49.252;8.904;2022-11-14T10:50:45;99536.03;;;10.53;100.00
10638;BME280;47007;49.252;8.904;2022-11-14T10:56:19;99529.84;;;10.67;100.00
10638;BME280;47007;49.252;8.904;2022-11-14T10:59:04;99534.13;;;10.68;100.00
10638;BME280;47007;49.252;8.904;2022-11-14T11:01:56;99530.28;;;10.70;100.00
10638;BME280;47007;49.252;8.904;2022-11-14T11:04:43;99530.47;;;10.69;100.00
10638;BME280;47007;49.252;8.904;2022-11-14T11:07:29;99518.78;;;10.63;100.00
10638;BME280;47007;49.252;8.904;2022-11-14T11:10:38;99515.72;;;10.60;100.00
10638;BME280;47007;49.252;8.904;2022-11-14T11:13:53;99528.28;;;10.72;100.00
10638;BME280;47007;49.252;8.904;2022-11-14T11:16:39;99475.84;;;10.47;100.00
10638;BME280;47007;49.252;8.904;2022-11-14T11:19:26;99545.59;;;10.96;100.00
10638;BME280;47007;49.252;8.904;2022-11-14T11:22:34;99514.91;;;11.15;100.00
10638;BME280;47007;49.252;8.904;2022-11-14T11:28:18;99498.50;;;11.33;100.00
10638;BME280;47007;49.252;8.904;2022-11-14T11:31:06;99510.38;;;11.43;100.00
10638;BME280;47007;49.252;8.904;2022-11-14T11:33:52;99523.03;;;11.41;100.00
10638;BME280;47007;49.252;8.904;2022-11-14T11:36:42;99492.56;;;11.31;100.00
10638;BME280;47007;49.252;8.904;2022-11-14T11:39:36;99478.91;;;11.34;100.00
10638;BME280;47007;49.252;8.904;2022-11-14T11:42:29;99486.25;;;11.32;100.00
10638;BME280;47007;49.252;8.904;2022-11-14T11:45:38;99495.47;;;11.36;100.00
10638;BME280;47007;49.252;8.904;2022-11-14T11:48:33;99492.00;;;11.42;100.00
10638;BME280;47007;49.252;8.904;2022-11-14T11:51:23;99481.38;;;11.42;100.00
10638;BME280;47007;49.252;8.904;2022-11-14T11:54:15;99479.94;;;11.39;100.00
10638;BME280;47007;49.252;8.904;2022-11-14T11:57:07;99487.25;;;11.31;100.00
10638;BME280;47007;49.252;8.904;2022-11-14T12:00:03;99477.97;;;11.13;100.00
10638;BME280;47007;49.252;8.904;2022-11-14T12:02:50;99481.44;;;11.14;100.00
10638;BME280;47007;49.252;8.904;2022-11-14T12:11:21;99484.59;;;11.24;100.00
10638;BME280;47007;49.252;8.904;2022-11-14T12:20:40;99476.28;;;11.40;100.00
10638;BME280;47007;49.252;8.904;2022-11-14T12:32:16;99470.94;;;11.34;100.00
10638;BME280;47007;49.252;8.904;2022-11-14T12:35:04;99459.53;;;11.40;100.00
10638;BME280;47007;49.252;8.904;2022-11-14T12:37:53;99469.59;;;11.51;100.00
10638;BME280;47007;49.252;8.904;2022-11-14T12:40:47;99470.59;;;11.43;100.00
10638;BME280;47007;49.252;8.904;2022-11-14T12:43:38;99473.25;;;11.50;100.00
10638;BME280;47007;49.252;8.904;2022-11-14T12:46:24;99466.38;;;11.62;100.00
10638;BME280;47007;49.252;8.904;2022-11-14T12:58:10;99450.94;;;11.79;100.00
10638;BME280;47007;49.252;8.904;2022-11-14T13:01:23;99443.81;;;11.86;100.00
10638;BME280;47007;49.252;8.904;2022-11-14T13:07:21;99376.09;;;14.71;100.00
10638;BME280;47007;49.252;8.904;2022-11-14T13:13:15;99351.16;;;13.84;100.00
10638;BME280;47007;49.252;8.904;2022-11-14T13:16:25;99363.75;;;13.26;100.00
10638;BME280;47007;49.252;8.904;2022-11-14T13:19:32;99387.16;;;13.04;100.00
10638;BME280;47007;49.252;8.904;2022-11-14T13:22:41;99371.03;;;12.86;100.00
10638;BME280;47007;49.252;8.904;2022-11-14T13:25:27;99379.41;;;12.89;100.00
10638;BME280;47007;49.252;8.904;2022-11-14T13:31:24;99355.63;;;13.14;100.00
10638;BME280;47007;49.252;8.904;2022-11-14T13:40:24;99380.38;;;13.15;100.00
10638;BME280;47007;49.252;8.904;2022-11-14T13:43:23;99378.91;;;13.25;100.00
10638;BME280;47007;49.252;8.904;2022-11-14T13:52:36;99383.00;;;13.28;100.00
10638;BME280;47007;49.252;8.904;2022-11-14T14:07:30;99386.13;;;12.99;100.00
10638;BME280;47007;49.252;8.904;2022-11-14T14:10:41;99388.03;;;12.85;100.00
10638;BME280;47007;49.252;8.904;2022-11-14T14:22:49;99389.91;;;12.71;100.00
10638;BME280;47007;49.252;8.904;2022-11-14T14:31:39;99376.19;;;12.61;100.00
10638;BME280;47007;49.252;8.904;2022-11-14T14:34:30;99405.63;;;12.79;100.00
10638;BME280;47007;49.252;8.904;2022-11-14T14:37:18;99387.63;;;12.68;100.00
10638;BME280;47007;49.252;8.904;2022-11-14T14:40:06;99381.50;;;12.68;100.00
10638;BME280;47007;49.252;8.904;2022-11-14T14:42:54;99365.56;;;12.54;100.00
10638;BME280;47007;49.252;8.904;2022-11-14T14:45:47;99369.03;;;12.62;100.00
10638;BME280;47007;49.252;8.904;2022-11-14T14:48:39;99382.53;;;12.73;100.00
10638;BME280;47007;49.252;8.904;2022-11-14T14:51:34;99381.72;;;12.73;100.00
10638;BME280;47007;49.252;8.904;2022-11-14T14:54:28;99386.44;;;12.57;100.00
10638;BME280;47007;49.252;8.904;2022-11-14T14:57:17;99389.72;;;12.59;100.00
10638;BME280;47007;49.252;8.904;2022-11-14T15:00:24;99383.56;;;12.59;100.00
10638;BME280;47007;49.252;8.904;2022-11-14T15:03:10;99391.34;;;12.47;100.00
10638;BME280;47007;49.252;8.904;2022-11-14T15:06:00;99332.50;;;12.04;100.00
10638;BME280;47007;49.252;8.904;2022-11-14T15:08:45;99395.84;;;12.47;100.00
10638;BME280;47007;49.252;8.904;2022-11-14T15:11:32;99387.47;;;12.43;100.00
10638;BME280;47007;49.252;8.904;2022-11-14T15:14:22;99416.69;;;12.50;100.00
10638;BME280;47007;49.252;8.904;2022-11-14T15:17:09;99379.47;;;12.37;100.00
10638;BME280;47007;49.252;8.904;2022-11-14T15:19:54;99410.78;;;12.48;100.00
10638;BME280;47007;49.252;8.904;2022-11-14T15:22:40;99402.41;;;12.44;100.00
10638;BME280;47007;49.252;8.904;2022-11-14T15:25:25;99404.41;;;12.49;100.00
10638;BME280;47007;49.252;8.904;2022-11-14T15:28:14;99405.84;;;12.51;100.00
10638;BME280;47007;49.252;8.904;2022-11-14T15:31:03;99411.81;;;12.47;100.00
10638;BME280;47007;49.252;8.904;2022-11-14T15:34:04;99406.06;;;12.50;100.00
10638;BME280;47007;49.252;8.904;2022-11-14T15:40:20;99396.84;;;12.52;100.00
10638;BME280;47007;49.252;8.904;2022-11-14T15:43:34;99405.22;;;12.49;100.00
10638;BME280;47007;49.252;8.904;2022-11-14T15:49:25;99404.03;;;12.45;100.00
10638;BME280;47007;49.252;8.904;2022-11-14T15:52:26;99400.34;;;12.53;100.00
10638;BME280;47007;49.252;8.904;2022-11-14T15:55:21;99302.25;;;11.92;100.00
10638;BME280;47007;49.252;8.904;2022-11-14T15:58:08;99410.34;;;12.51;100.00
10638;BME280;47007;49.252;8.904;2022-11-14T16:01:17;99409.53;;;12.37;100.00
10638;BME280;47007;49.252;8.904;2022-11-14T16:04:10;99426.09;;;12.33;100.00
10638;BME280;47007;49.252;8.904;2022-11-14T16:06:58;99425.72;;;12.36;100.00
10638;BME280;47007;49.252;8.904;2022-11-14T16:09:44;99414.88;;;12.31;100.00
10638;BME280;47007;49.252;8.904;2022-11-14T16:12:30;99415.47;;;12.39;100.00
10638;BME280;47007;49.252;8.904;2022-11-14T16:15:18;99360.88;;;12.04;100.00
10638;BME280;47007;49.252;8.904;2022-11-14T16:18:04;99420.38;;;12.42;100.00
10638;BME280;47007;49.252;8.904;2022-11-14T16:20:50;99411.78;;;12.27;100.00
10638;BME280;47007;49.252;8.904;2022-11-14T16:23:38;99433.88;;;12.21;100.00
10638;BME280;47007;49.252;8.904;2022-11-14T16:26:24;99416.91;;;12.09;100.00
10638;BME280;47007;49.252;8.904;2022-11-14T16:29:14;99426.28;;;12.05;100.00
10638;BME280;47007;49.252;8.904;2022-11-14T16:32:00;99421.16;;;11.97;100.00
10638;BME280;47007;49.252;8.904;2022-11-14T16:34:45;99422.19;;;11.96;100.00
10638;BME280;47007;49.252;8.904;2022-11-14T16:37:30;99408.59;;;11.64;100.00